Barre Mills, Wisconsin
Current Conditions -  °F | °C
As of 11:53 AM on Saturday 20 Dec 2014 (Local Time) from KLSE Reporting Station
Overcast Overcast  
Wind Chill: 28°   Ceiling: 1400
Heat Index: 33°   Visibility: 7mi
Dew Point: 26°   Wind: 6mph
Humidity: 75%   Direction: 160°SSE
Pressure: 30.2"   Gusts: NA
Location:  43.8°N, 91.145°W
Report Text: KLSE 201753Z 16005KT 7SM OVC014 01/M03 A3020 RMK AO2 SLP240 T00061033 10006 21011 58007
Loading
Personal Weather Stations






























Interactive Weather Map New forecast layout! Learn more

10-Day Weather Forecast

Advertisements
Track Severe Weather on mobile